createdAt,value
2018-12-19T00:01:41.870Z,33.17
2018-12-19T00:04:08.331Z,28.07
2018-12-19T00:06:34.699Z,34.53
2018-12-19T00:09:03.269Z,38.13
2018-12-19T00:11:29.890Z,32.57
2018-12-19T00:13:56.575Z,33.27
2018-12-19T00:16:23.164Z,35.87
2018-12-19T00:18:49.618Z,37.63
2018-12-19T00:21:16.206Z,35.07
2018-12-19T00:23:42.658Z,36.00
2018-12-19T00:26:09.261Z,37.80
2018-12-19T00:28:35.773Z,39.40
2018-12-19T00:31:02.462Z,37.03
2018-12-19T00:33:28.942Z,37.77
2018-12-19T00:35:55.314Z,37.73
2018-12-19T00:38:21.898Z,39.80
2018-12-19T00:40:48.474Z,46.73
2018-12-19T00:43:14.952Z,39.97
2018-12-19T00:45:41.430Z,43.17
2018-12-19T00:48:07.918Z,41.63
2018-12-19T00:50:34.403Z,42.43
2018-12-19T00:53:00.783Z,43.47
2018-12-19T00:55:27.270Z,51.20
2018-12-19T00:57:53.751Z,48.23
2018-12-19T01:00:20.339Z,43.80
2018-12-19T01:02:47.042Z,38.10
2018-12-19T01:05:13.515Z,42.60
2018-12-19T01:07:40.007Z,40.30
2018-12-19T01:10:06.698Z,38.93
2018-12-19T01:12:33.296Z,42.67
2018-12-19T01:14:59.876Z,44.90
2018-12-19T01:17:26.575Z,39.20
2018-12-19T01:19:53.052Z,47.60
2018-12-19T01:22:19.434Z,41.17
2018-12-19T01:24:46.022Z,47.20
2018-12-19T01:27:12.617Z,43.83
2018-12-19T01:29:39.189Z,51.63
2018-12-19T01:32:05.790Z,41.50
2018-12-19T01:34:32.297Z,46.80
2018-12-19T01:36:58.972Z,51.33
2018-12-19T01:39:25.566Z,51.23
2018-12-19T01:41:52.038Z,49.77
2018-12-19T01:44:18.506Z,41.03
2018-12-19T01:46:44.982Z,42.67
2018-12-19T01:49:11.726Z,42.77
2018-12-19T01:51:40.015Z,39.80
2018-12-19T01:54:06.722Z,37.23
2018-12-19T01:56:33.306Z,40.63
2018-12-19T01:59:00.011Z,37.53
2018-12-19T02:01:26.506Z,39.63
2018-12-19T02:03:52.991Z,38.50
2018-12-19T02:06:19.578Z,40.67
2018-12-19T02:08:45.926Z,38.03
2018-12-19T02:11:12.515Z,40.37
2018-12-19T02:13:39.554Z,36.37
2018-12-19T02:16:06.144Z,45.30
2018-12-19T02:18:32.733Z,39.07
2018-12-19T02:20:59.089Z,39.20
2018-12-19T02:23:25.694Z,37.83
2018-12-19T02:25:52.191Z,39.30
2018-12-19T02:28:18.875Z,42.23
2018-12-19T02:30:45.354Z,44.47
2018-12-19T02:33:11.729Z,44.93
2018-12-19T02:35:38.095Z,44.40
2018-12-19T02:38:04.443Z,44.77
2018-12-19T02:40:30.871Z,46.60
2018-12-19T02:42:58.102Z,51.53
2018-12-19T02:45:24.818Z,49.37
2018-12-19T02:47:51.400Z,54.90
2018-12-19T02:50:18.003Z,60.90
2018-12-19T02:52:44.619Z,60.33
2018-12-19T02:55:10.977Z,52.93
2018-12-19T02:57:37.699Z,54.97
2018-12-19T03:00:04.921Z,60.73
2018-12-19T03:02:31.414Z,57.07
2018-12-19T03:04:57.997Z,51.77
2018-12-19T03:07:24.359Z,48.47
2018-12-19T03:09:50.854Z,50.47
2018-12-19T03:12:17.342Z,45.07
2018-12-19T03:14:43.833Z,49.60
2018-12-19T03:17:10.325Z,47.97
2018-12-19T03:19:36.919Z,45.97
2018-12-19T03:22:03.522Z,46.57
2018-12-19T03:24:29.888Z,45.13
2018-12-19T03:26:56.495Z,42.60
2018-12-19T03:29:23.091Z,47.67
2018-12-19T03:31:49.704Z,47.57
2018-12-19T03:34:16.298Z,43.70
2018-12-19T03:36:42.899Z,43.07
2018-12-19T03:39:09.531Z,42.60
2018-12-19T03:41:36.235Z,46.47
2018-12-19T03:44:02.796Z,44.60
2018-12-19T03:46:29.288Z,47.33
2018-12-19T03:48:56.393Z,42.57
2018-12-19T03:51:22.982Z,42.87
2018-12-19T03:53:49.458Z,44.60
2018-12-19T03:56:15.823Z,43.80
2018-12-19T03:58:42.419Z,42.67
2018-12-19T04:01:08.895Z,44.37
2018-12-19T04:03:35.420Z,39.63
2018-12-19T04:06:02.112Z,40.43
2018-12-19T04:08:28.710Z,41.20
2018-12-19T04:10:55.199Z,43.83
2018-12-19T04:13:21.675Z,43.50
2018-12-19T04:15:48.288Z,36.53
2018-12-19T04:18:14.770Z,40.23
2018-12-19T04:20:41.386Z,42.57
2018-12-19T04:23:07.891Z,40.73
2018-12-19T04:25:34.247Z,45.00
2018-12-19T04:28:00.870Z,41.40
2018-12-19T04:30:27.568Z,37.63
2018-12-19T04:32:54.271Z,45.53
2018-12-19T04:35:20.858Z,40.53
2018-12-19T04:37:47.364Z,40.30
2018-12-19T04:40:13.743Z,38.17
2018-12-19T04:42:40.098Z,40.80
2018-12-19T04:45:06.692Z,39.20
2018-12-19T04:47:33.404Z,43.87
2018-12-19T04:50:00.006Z,40.30
2018-12-19T04:52:26.754Z,39.97
2018-12-19T04:54:53.275Z,38.37
2018-12-19T04:57:19.770Z,41.07
2018-12-19T04:59:46.259Z,43.37
2018-12-19T05:02:12.743Z,45.00
2018-12-19T05:04:39.230Z,42.43
2018-12-19T05:07:05.710Z,43.67
2018-12-19T05:09:32.186Z,44.83
2018-12-19T05:11:58.771Z,43.77
2018-12-19T05:14:25.356Z,42.03
2018-12-19T05:16:51.973Z,40.60
2018-12-19T05:19:18.687Z,45.40
2018-12-19T05:21:45.046Z,47.87
2018-12-19T05:24:11.771Z,40.87
2018-12-19T05:26:38.473Z,39.73
2018-12-19T05:29:05.083Z,39.20
2018-12-19T05:31:31.680Z,41.07
2018-12-19T05:33:58.162Z,40.63
2018-12-19T05:36:26.403Z,40.37
2018-12-19T05:38:53.302Z,46.90
2018-12-19T05:41:19.766Z,39.07
2018-12-19T05:43:46.351Z,43.03
2018-12-19T05:46:12.982Z,46.13
2018-12-19T05:48:39.895Z,43.07
2018-12-19T05:51:06.395Z,41.00
2018-12-19T05:53:33.007Z,39.67
2018-12-19T05:55:59.731Z,39.40
2018-12-19T05:58:26.255Z,37.07
2018-12-19T06:00:52.790Z,41.10
2018-12-19T06:03:19.370Z,39.43
2018-12-19T06:05:45.830Z,41.33
2018-12-19T06:08:12.417Z,40.33
2018-12-19T06:10:38.881Z,42.47
2018-12-19T06:13:05.593Z,41.97
2018-12-19T06:15:32.247Z,44.43
2018-12-19T06:17:58.850Z,40.30
2018-12-19T06:20:25.475Z,38.67
2018-12-19T06:22:52.075Z,41.93
2018-12-19T06:25:18.687Z,48.33
2018-12-19T06:27:45.046Z,41.10
2018-12-19T06:30:11.555Z,43.17
2018-12-19T06:32:38.247Z,43.37
2018-12-19T06:35:04.750Z,47.73
2018-12-19T06:37:31.343Z,44.03
2018-12-19T06:39:57.930Z,45.00
2018-12-19T06:42:24.522Z,54.10
2018-12-19T06:44:51.101Z,47.73
2018-12-19T06:47:17.719Z,46.13
2018-12-19T06:49:44.339Z,49.40
2018-12-19T06:52:10.943Z,47.50
2018-12-19T06:54:37.559Z,48.17
2018-12-19T06:57:03.928Z,43.00
2018-12-19T06:59:30.274Z,50.03
2018-12-19T07:01:56.801Z,48.70
2018-12-19T07:04:23.486Z,51.57
2018-12-19T07:06:49.991Z,49.07
2018-12-19T07:09:16.451Z,49.20
2018-12-19T07:11:43.059Z,48.03
2018-12-19T07:14:12.171Z,47.87
2018-12-19T07:16:43.483Z,43.83
2018-12-19T07:19:07.602Z,45.80
2018-12-19T07:21:34.166Z,42.33
2018-12-19T07:24:00.646Z,42.80
2018-12-19T07:26:26.998Z,44.53
2018-12-19T07:28:53.494Z,39.73
2018-12-19T07:31:20.083Z,42.83
2018-12-19T07:33:46.440Z,42.57
2018-12-19T07:36:13.769Z,42.03
2018-12-19T07:38:40.137Z,41.60
2018-12-19T07:41:06.644Z,48.27
2018-12-19T07:43:33.382Z,45.10
2018-12-19T07:45:59.974Z,40.13
2018-12-19T07:48:26.792Z,41.73
2018-12-19T07:50:53.383Z,41.03
2018-12-19T07:53:20.009Z,45.30
2018-12-19T07:55:46.806Z,42.87
2018-12-19T07:58:13.397Z,47.00
2018-12-19T08:00:40.117Z,42.20
2018-12-19T08:03:06.632Z,42.30
2018-12-19T08:05:33.130Z,45.67
2018-12-19T08:07:59.490Z,39.80
2018-12-19T08:10:26.119Z,40.73
2018-12-19T08:12:52.722Z,40.50
2018-12-19T08:15:19.427Z,39.10
2018-12-19T08:17:45.892Z,38.00
2018-12-19T08:20:12.302Z,40.87
2018-12-19T08:22:38.834Z,35.30
2018-12-19T08:25:05.534Z,39.13
2018-12-19T08:27:31.886Z,37.17
2018-12-19T08:29:58.601Z,40.43
2018-12-19T08:32:25.071Z,40.83
2018-12-19T08:34:51.678Z,34.47
2018-12-19T08:37:18.266Z,48.33
2018-12-19T08:39:44.811Z,43.23
2018-12-19T08:42:11.278Z,37.40
2018-12-19T08:44:37.759Z,38.67
2018-12-19T08:47:04.354Z,40.27
2018-12-19T08:49:30.910Z,39.20
2018-12-19T08:51:57.544Z,39.27
2018-12-19T08:54:24.178Z,44.80
2018-12-19T08:56:50.775Z,37.07
2018-12-19T08:59:17.379Z,37.07
2018-12-19T09:01:43.866Z,42.93
2018-12-19T09:04:10.458Z,37.27
2018-12-19T09:06:36.955Z,37.30
2018-12-19T09:09:04.782Z,41.07
2018-12-19T09:11:31.275Z,47.20
2018-12-19T09:13:57.888Z,45.97
2018-12-19T09:16:24.240Z,37.33
2018-12-19T09:18:50.832Z,43.17
2018-12-19T09:21:17.431Z,42.23
2018-12-19T09:23:43.785Z,40.53
2018-12-19T09:26:10.387Z,39.73
2018-12-19T09:28:36.983Z,39.60
2018-12-19T09:31:03.346Z,37.30
2018-12-19T09:33:29.944Z,41.70
2018-12-19T09:35:56.542Z,35.37
2018-12-19T09:38:23.013Z,37.07
2018-12-19T09:40:49.378Z,37.53
2018-12-19T09:43:15.971Z,37.83
2018-12-19T09:45:42.327Z,37.57
2018-12-19T09:48:09.039Z,39.37
2018-12-19T09:50:35.744Z,38.03
2018-12-19T09:53:02.349Z,38.87
2018-12-19T09:55:28.855Z,37.03
2018-12-19T09:57:55.578Z,38.43
2018-12-19T10:00:24.105Z,39.20
2018-12-19T10:02:50.707Z,39.50
2018-12-19T10:05:17.335Z,40.60
2018-12-19T10:07:43.807Z,45.10
2018-12-19T10:10:10.267Z,40.60
2018-12-19T10:12:36.651Z,38.90
2018-12-19T10:15:03.447Z,35.13
2018-12-19T10:17:30.158Z,39.20
2018-12-19T10:19:56.630Z,39.73
2018-12-19T10:22:25.035Z,37.93
2018-12-19T10:24:53.507Z,40.43
2018-12-19T10:27:21.086Z,37.57
2018-12-19T10:29:47.438Z,38.13
2018-12-19T10:32:14.185Z,37.03
2018-12-19T10:34:42.622Z,37.17
2018-12-19T10:37:09.446Z,38.33
2018-12-19T10:39:36.678Z,40.47
2018-12-19T10:42:03.882Z,38.30
2018-12-19T10:44:30.582Z,35.57
2018-12-19T10:46:57.234Z,37.20
2018-12-19T10:49:23.750Z,39.10
2018-12-19T10:51:50.330Z,39.07
2018-12-19T10:54:16.803Z,35.60
2018-12-19T10:56:43.449Z,39.97
2018-12-19T10:59:10.072Z,39.57
2018-12-19T11:01:36.660Z,36.93
2018-12-19T11:04:03.123Z,38.93
2018-12-19T11:06:29.712Z,40.70
2018-12-19T11:08:56.306Z,39.20
2018-12-19T11:11:22.787Z,39.97
2018-12-19T11:13:49.503Z,42.70
2018-12-19T11:16:15.851Z,43.80
2018-12-19T11:18:42.459Z,44.93
2018-12-19T11:21:09.182Z,47.60
2018-12-19T11:23:35.707Z,44.83
2018-12-19T11:26:02.303Z,46.37
2018-12-19T11:28:28.914Z,44.47
2018-12-19T11:30:55.517Z,43.67
2018-12-19T11:33:21.455Z,43.07
2018-12-19T11:35:47.919Z,44.60
2018-12-19T11:38:14.739Z,41.90
2018-12-19T11:40:41.541Z,46.40
2018-12-19T11:43:08.303Z,42.30
2018-12-19T11:45:34.907Z,46.33
2018-12-19T11:48:01.278Z,43.70
2018-12-19T11:50:27.799Z,48.20
2018-12-19T11:52:54.433Z,47.33
2018-12-19T11:55:20.821Z,49.77
2018-12-19T11:57:47.177Z,47.77
2018-12-19T12:00:13.806Z,51.17
2018-12-19T12:02:40.470Z,45.37
2018-12-19T12:05:07.104Z,50.37
2018-12-19T12:07:33.599Z,51.20
2018-12-19T12:10:00.242Z,48.70
2018-12-19T12:12:26.978Z,50.57
2018-12-19T12:14:53.530Z,50.93
2018-12-19T12:17:19.874Z,52.30
2018-12-19T12:19:46.234Z,52.00
2018-12-19T12:22:12.823Z,49.37
2018-12-19T12:24:39.491Z,54.20
2018-12-19T12:27:05.873Z,43.93
2018-12-19T12:29:32.367Z,45.77
2018-12-19T12:31:59.054Z,51.13
2018-12-19T12:34:27.806Z,48.83
2018-12-19T12:36:54.394Z,51.20
2018-12-19T12:39:20.930Z,51.87
2018-12-19T12:41:52.340Z,46.97
2018-12-19T12:44:16.154Z,52.03
2018-12-19T12:46:42.859Z,47.17
2018-12-19T12:49:09.446Z,48.47
2018-12-19T12:51:35.851Z,46.50
2018-12-19T12:54:02.499Z,49.87
2018-12-19T12:56:29.003Z,53.20
2018-12-19T12:58:55.578Z,49.93
2018-12-19T13:01:22.090Z,47.50
2018-12-19T13:03:48.477Z,48.23
2018-12-19T13:06:15.091Z,49.07
2018-12-19T13:08:41.682Z,49.57
2018-12-19T13:11:08.196Z,47.03
2018-12-19T13:13:34.667Z,49.13
2018-12-19T13:16:01.187Z,52.07
2018-12-19T13:18:27.679Z,51.53
2018-12-19T13:20:54.186Z,51.80
2018-12-19T13:23:20.777Z,52.07
2018-12-19T13:25:47.496Z,52.70
2018-12-19T13:28:14.012Z,53.27
2018-12-19T13:30:40.367Z,50.10
2018-12-19T13:33:06.963Z,47.30
2018-12-19T13:35:33.703Z,47.93
2018-12-19T13:38:00.176Z,46.43
2018-12-19T13:40:26.884Z,47.53
2018-12-19T13:42:53.478Z,49.40
2018-12-19T13:45:20.103Z,48.93
2018-12-19T13:47:46.574Z,49.67
2018-12-19T13:50:13.162Z,48.40
2018-12-19T13:52:39.779Z,48.30
2018-12-19T13:55:06.494Z,50.97
2018-12-19T13:57:33.091Z,46.60
2018-12-19T13:59:59.646Z,43.77
2018-12-19T14:02:26.246Z,47.90
2018-12-19T14:04:52.830Z,56.00
2018-12-19T14:07:19.555Z,50.13
2018-12-19T14:09:46.260Z,47.83
2018-12-19T14:12:12.875Z,57.80
2018-12-19T14:14:39.229Z,45.37
2018-12-19T14:17:06.398Z,51.50
2018-12-19T14:19:33.047Z,49.93
2018-12-19T14:21:59.756Z,49.53
2018-12-19T14:24:26.229Z,50.40
2018-12-19T14:26:52.835Z,47.40
2018-12-19T14:29:19.429Z,47.80
2018-12-19T14:31:45.786Z,53.80
2018-12-19T14:34:12.388Z,58.97
2018-12-19T14:36:38.974Z,57.07
2018-12-19T14:39:05.563Z,52.73
2018-12-19T14:41:32.051Z,47.53
2018-12-19T14:43:58.669Z,47.50
2018-12-19T14:46:25.330Z,47.60
2018-12-19T14:48:51.990Z,49.80
2018-12-19T14:51:18.598Z,51.70
2018-12-19T14:53:45.212Z,47.73
2018-12-19T14:56:11.798Z,52.17
2018-12-19T14:58:38.411Z,47.60
2018-12-19T15:01:05.070Z,54.20
2018-12-19T15:03:31.807Z,54.27
2018-12-19T15:05:58.408Z,54.33
2018-12-19T15:08:25.123Z,53.87
2018-12-19T15:10:51.595Z,54.07
2018-12-19T15:13:18.078Z,51.53
2018-12-19T15:15:46.451Z,52.53
2018-12-19T15:18:13.054Z,51.27
2018-12-19T15:20:39.639Z,52.43
2018-12-19T15:23:06.237Z,54.93
2018-12-19T15:25:32.879Z,59.00
2018-12-19T15:27:59.492Z,57.67
2018-12-19T15:30:26.215Z,55.63
2018-12-19T15:32:52.707Z,50.97
2018-12-19T15:35:19.223Z,59.67
2018-12-19T15:37:45.932Z,58.07
2018-12-19T15:40:12.678Z,53.20
2018-12-19T15:42:39.038Z,59.23
2018-12-19T15:45:06.579Z,54.47
2018-12-19T15:47:33.170Z,59.80
2018-12-19T15:49:59.914Z,58.00
2018-12-19T15:52:26.682Z,51.40
2018-12-19T15:54:53.207Z,53.30
2018-12-19T15:57:19.799Z,58.50
2018-12-19T15:59:46.167Z,57.30
2018-12-19T16:02:12.683Z,57.00
2018-12-19T16:04:39.174Z,57.93
2018-12-19T16:07:05.535Z,59.00
2018-12-19T16:09:33.207Z,59.60
2018-12-19T16:11:59.562Z,60.03
2018-12-19T16:14:26.160Z,77.20
2018-12-19T16:16:52.534Z,62.93
2018-12-19T16:19:19.291Z,66.57
2018-12-19T16:21:45.926Z,64.73
2018-12-19T16:24:12.519Z,59.23
2018-12-19T16:26:39.038Z,64.83
2018-12-19T16:29:05.839Z,67.13
2018-12-19T16:31:32.449Z,58.93
2018-12-19T16:33:58.919Z,69.70
2018-12-19T16:36:25.538Z,70.57
2018-12-19T16:38:52.021Z,63.83
2018-12-19T16:41:18.513Z,66.17
2018-12-19T16:43:44.858Z,60.97
2018-12-19T16:46:11.231Z,62.87
2018-12-19T16:48:37.834Z,56.43
2018-12-19T16:51:04.339Z,55.23
2018-12-19T16:53:30.958Z,62.17
2018-12-19T16:55:57.556Z,56.23
2018-12-19T16:58:24.033Z,58.30
2018-12-19T17:00:50.564Z,64.77
2018-12-19T17:03:17.147Z,57.43
2018-12-19T17:05:43.638Z,58.40
2018-12-19T17:08:10.239Z,60.23
2018-12-19T17:10:37.547Z,55.77
2018-12-19T17:13:04.954Z,57.37
2018-12-19T17:15:31.346Z,71.73
2018-12-19T17:17:58.086Z,66.20
2018-12-19T17:20:24.688Z,70.37
2018-12-19T17:22:51.299Z,62.83
2018-12-19T17:25:17.882Z,64.80
2018-12-19T17:27:44.609Z,55.67
2018-12-19T17:30:11.297Z,55.30
2018-12-19T17:32:37.892Z,61.50
2018-12-19T17:35:04.371Z,57.03
2018-12-19T17:37:30.813Z,49.17
2018-12-19T17:39:57.402Z,57.90
2018-12-19T17:42:23.890Z,58.90
2018-12-19T17:44:50.591Z,59.33
2018-12-19T17:47:17.184Z,59.73
2018-12-19T17:49:43.662Z,60.93
2018-12-19T17:52:10.343Z,51.77
2018-12-19T17:54:36.953Z,58.80
2018-12-19T17:57:21.100Z,63.20
2018-12-19T17:59:47.518Z,72.87
2018-12-19T18:02:14.852Z,81.17
2018-12-19T18:04:41.452Z,70.23
2018-12-19T18:07:08.047Z,65.23
2018-12-19T18:09:34.658Z,56.83
2018-12-19T18:12:01.126Z,62.60
2018-12-19T18:14:27.494Z,63.90
2018-12-19T18:16:54.201Z,72.83
2018-12-19T18:19:23.464Z,64.97
2018-12-19T18:21:49.450Z,61.30
2018-12-19T18:24:16.178Z,64.70
2018-12-19T18:26:42.798Z,60.10
2018-12-19T18:29:09.298Z,54.27
2018-12-19T18:31:35.650Z,63.83
2018-12-19T18:34:02.362Z,56.87
2018-12-19T18:36:28.724Z,59.47
2018-12-19T18:38:55.319Z,60.30
2018-12-19T18:41:21.791Z,56.50
2018-12-19T18:43:48.287Z,62.77
2018-12-19T18:46:14.786Z,56.13
2018-12-19T18:48:41.380Z,57.50
2018-12-19T18:51:07.967Z,52.33
2018-12-19T18:53:34.338Z,56.17
2018-12-19T18:56:00.944Z,55.80
2018-12-19T18:58:27.522Z,56.70
2018-12-19T19:00:53.887Z,57.73
2018-12-19T19:03:20.371Z,51.23
2018-12-19T19:05:46.838Z,54.10
2018-12-19T19:08:13.580Z,61.17
2018-12-19T19:10:40.591Z,58.37
2018-12-19T19:13:07.123Z,55.53
2018-12-19T19:15:33.598Z,52.63
2018-12-19T19:18:00.308Z,55.97
2018-12-19T19:20:26.902Z,54.97
2018-12-19T19:22:53.396Z,63.30
2018-12-19T19:25:19.875Z,55.17
2018-12-19T19:27:46.220Z,55.60
2018-12-19T19:30:12.709Z,59.40
2018-12-19T19:32:39.414Z,67.00
2018-12-19T19:35:06.202Z,54.57
2018-12-19T19:37:32.846Z,55.90
2018-12-19T19:39:59.440Z,58.90
2018-12-19T19:42:32.459Z,55.93
2018-12-19T19:45:03.903Z,51.87
2018-12-19T19:47:30.522Z,54.67
2018-12-19T19:49:56.919Z,55.23
2018-12-19T19:52:23.523Z,53.13
2018-12-19T19:54:50.276Z,56.83
2018-12-19T19:57:17.037Z,54.57
2018-12-19T19:59:43.774Z,51.90
2018-12-19T20:02:10.162Z,59.17
2018-12-19T20:04:36.764Z,54.00
2018-12-19T20:07:03.365Z,57.73
2018-12-19T20:09:29.964Z,56.93
2018-12-19T20:11:56.568Z,52.77
2018-12-19T20:14:23.049Z,60.60
2018-12-19T20:16:51.462Z,58.03
2018-12-19T20:19:18.062Z,51.83
2018-12-19T20:21:44.678Z,55.80
2018-12-19T20:24:11.277Z,52.03
2018-12-19T20:26:37.661Z,54.63
2018-12-19T20:29:04.270Z,53.50
2018-12-19T20:31:30.750Z,49.17
2018-12-19T20:33:57.467Z,57.10
2018-12-19T20:36:23.971Z,51.03
2018-12-19T20:38:50.633Z,51.77
2018-12-19T20:41:17.333Z,53.10
2018-12-19T20:43:43.828Z,50.70
2018-12-19T20:46:10.407Z,49.80
2018-12-19T20:48:37.002Z,50.33
2018-12-19T20:51:03.416Z,53.70
2018-12-19T20:53:29.960Z,52.53
2018-12-19T20:55:56.559Z,52.37
2018-12-19T20:58:23.054Z,54.60
2018-12-19T21:00:49.607Z,60.30
2018-12-19T21:03:16.207Z,62.15
2018-12-19T21:05:42.554Z,54.50
2018-12-19T21:08:09.138Z,56.53
2018-12-19T21:10:35.719Z,56.37
2018-12-19T21:13:02.214Z,55.87
2018-12-19T21:15:28.686Z,52.70
2018-12-19T21:17:57.103Z,54.17
2018-12-19T21:20:23.576Z,54.90
2018-12-19T21:22:50.189Z,48.73
2018-12-19T21:25:16.697Z,45.73
2018-12-19T21:27:43.048Z,50.00
2018-12-19T21:30:09.826Z,43.80
2018-12-19T21:32:36.427Z,48.00
2018-12-19T21:35:03.018Z,50.17
2018-12-19T21:37:29.627Z,50.67
2018-12-19T21:39:56.119Z,50.83
2018-12-19T21:42:22.864Z,46.87
2018-12-19T21:44:49.639Z,55.50
2018-12-19T21:47:16.131Z,50.87
2018-12-19T21:49:42.541Z,52.97
2018-12-19T21:52:08.964Z,54.38
2018-12-19T21:54:35.486Z,52.50
2018-12-19T21:57:03.025Z,52.80
2018-12-19T21:59:29.824Z,46.90
2018-12-19T22:01:56.527Z,47.27
2018-12-19T22:04:23.358Z,51.37
2018-12-19T22:06:50.016Z,43.93
2018-12-19T22:09:16.599Z,49.40
2018-12-19T22:11:43.073Z,45.03
2018-12-19T22:14:09.639Z,41.93
2018-12-19T22:16:38.919Z,47.63
2018-12-19T22:19:05.869Z,42.07
2018-12-19T22:21:32.267Z,43.80
2018-12-19T22:23:58.903Z,49.90
2018-12-19T22:26:25.588Z,44.37
2018-12-19T22:28:52.306Z,42.30
2018-12-19T22:31:18.914Z,49.67
2018-12-19T22:33:45.511Z,45.30
2018-12-19T22:36:12.182Z,45.87
2018-12-19T22:38:38.961Z,40.83
2018-12-19T22:41:05.637Z,44.03
2018-12-19T22:43:32.383Z,44.27
2018-12-19T22:45:59.125Z,45.47
2018-12-19T22:48:25.558Z,39.67
2018-12-19T22:50:52.138Z,43.17
2018-12-19T22:53:18.650Z,50.17
2018-12-19T22:55:45.271Z,40.77
2018-12-19T22:58:11.859Z,46.13
2018-12-19T23:00:41.196Z,51.80
2018-12-19T23:03:07.852Z,42.93
2018-12-19T23:05:37.082Z,48.70
2018-12-19T23:08:03.860Z,47.97
2018-12-19T23:10:30.523Z,48.60
2018-12-19T23:12:56.995Z,43.17
2018-12-19T23:15:24.234Z,46.07
2018-12-19T23:17:52.793Z,47.17
2018-12-19T23:20:19.282Z,41.50
2018-12-19T23:22:45.906Z,43.57
2018-12-19T23:25:12.757Z,44.37
2018-12-19T23:27:39.530Z,43.83
2018-12-19T23:30:06.375Z,46.23
2018-12-19T23:32:33.043Z,40.03
2018-12-19T23:34:59.810Z,43.43
2018-12-19T23:37:26.379Z,40.87
2018-12-19T23:39:52.776Z,44.63
2018-12-19T23:42:19.362Z,51.43
2018-12-19T23:44:45.966Z,47.07
2018-12-19T23:47:12.807Z,43.10
2018-12-19T23:49:39.345Z,46.87
2018-12-19T23:52:05.943Z,43.93
2018-12-19T23:54:32.614Z,45.67
2018-12-19T23:56:59.369Z,50.00
2018-12-19T23:59:26.113Z,47.87
